Time;durP1;ratioP1;P1;durP2;ratioP2;P2;SDS_P1;SDS_P2;PMS_P1;PMS_P2;Temp;Humidity;BMP_temperature;BMP_pressure;BME280_temperature;BME280_humidity;BME280_pressure;Samples;Min_cycle;Max_cycle;Signal;HPM_P1;HPM_P2
2021/06/05 00:00:13;;;;;;;116.35;52.67;;;18.80;96.70;;;;;;5055048;28;20084;-78
2021/06/05 00:02:40;;;;;;;108.50;52.08;;;18.80;96.50;;;;;;5040718;28;20048;-78
2021/06/05 00:05:08;;;;;;;126.30;54.63;;;18.70;96.80;;;;;;5042133;28;20144;-78
2021/06/05 00:07:34;;;;;;;112.28;52.85;;;18.70;97.10;;;;;;5038199;28;20055;-78
2021/06/05 00:10:03;;;;;;;107.80;50.95;;;18.70;97.20;;;;;;5038948;28;20075;-78
2021/06/05 00:12:29;;;;;;;111.03;52.78;;;18.70;97.40;;;;;;5035493;28;20063;-78
2021/06/05 00:14:56;;;;;;;115.15;50.55;;;18.70;97.10;;;;;;5042254;28;20045;-77
2021/06/05 00:17:24;;;;;;;104.88;49.00;;;18.60;97.30;;;;;;5073936;28;20420;-78
2021/06/05 00:19:51;;;;;;;121.82;53.42;;;18.60;97.40;;;;;;5038715;28;20848;-78
2021/06/05 00:22:18;;;;;;;117.18;52.60;;;18.60;97.40;;;;;;5050105;28;20068;-78
2021/06/05 00:24:45;;;;;;;117.18;52.33;;;18.50;97.60;;;;;;5073425;28;20054;-77
2021/06/05 00:27:12;;;;;;;113.13;51.78;;;18.40;98.10;;;;;;5038639;28;20053;-78
2021/06/05 00:29:38;;;;;;;114.18;51.80;;;18.40;98.30;;;;;;5036883;28;20428;-78
2021/06/05 00:32:05;;;;;;;109.78;52.03;;;18.40;98.30;;;;;;5038814;28;20053;-77
2021/06/05 00:34:32;;;;;;;109.13;51.75;;;18.40;98.40;;;;;;5040393;28;20063;-78
2021/06/05 00:36:59;;;;;;;120.97;53.88;;;18.40;98.50;;;;;;5036207;28;20049;-78
2021/06/05 00:39:26;;;;;;;112.75;52.65;;;18.40;98.20;;;;;;5034542;28;20049;-77
2021/06/05 00:41:52;;;;;;;115.05;52.47;;;18.30;98.30;;;;;;5037979;28;20057;-78
2021/06/05 00:44:19;;;;;;;114.53;52.95;;;18.40;98.50;;;;;;5040417;28;20783;-78
2021/06/05 00:46:46;;;;;;;106.88;51.00;;;18.40;98.50;;;;;;5036210;28;20046;-78
2021/06/05 00:49:13;;;;;;;104.70;49.78;;;18.40;98.70;;;;;;5033026;28;20045;-78
2021/06/05 00:51:46;;;;;;;107.43;51.95;;;18.40;98.50;;;;;;5037637;28;20136;-78
2021/06/05 00:54:14;;;;;;;106.30;49.60;;;18.40;98.70;;;;;;5068438;28;20059;-78
2021/06/05 00:56:43;;;;;;;116.05;52.17;;;18.50;99.00;;;;;;5046780;28;20450;-79
2021/06/05 00:59:10;;;;;;;109.22;52.53;;;18.50;99.30;;;;;;5074324;28;20076;-79
2021/06/05 01:01:37;;;;;;;128.88;54.95;;;18.50;99.30;;;;;;5044499;28;20598;-78
2021/06/05 01:04:04;;;;;;;150.40;56.55;;;18.50;99.70;;;;;;5044112;28;20053;-78
2021/06/05 01:06:52;;;;;;;149.48;57.63;;;18.40;99.90;;;;;;5039680;28;20132;-78
2021/06/05 01:09:36;;;;;;;162.75;61.60;;;18.20;99.90;;;;;;5038606;28;20078;-78
2021/06/05 01:12:38;;;;;;;159.18;61.35;;;18.00;99.90;;;;;;5053167;28;20044;-77
2021/06/05 01:15:28;;;;;;;163.13;60.88;;;17.90;99.90;;;;;;5004222;28;20058;-78
2021/06/05 01:18:00;;;;;;;171.20;62.90;;;17.80;99.90;;;;;;5042396;28;20042;-79
2021/06/05 01:20:56;;;;;;;165.82;59.50;;;17.70;99.90;;;;;;5035102;28;20041;-78
2021/06/05 01:23:46;;;;;;;164.48;60.45;;;17.70;99.90;;;;;;5027515;28;20045;-79
2021/06/05 01:26:27;;;;;;;180.65;56.75;;;17.60;99.90;;;;;;5061005;28;20069;-78
2021/06/05 01:28:57;;;;;;;166.32;53.38;;;17.50;99.90;;;;;;5033872;28;20140;-78
2021/06/05 01:31:33;;;;;;;142.82;52.45;;;17.50;99.90;;;;;;5038185;28;20045;-77
2021/06/05 01:34:00;;;;;;;143.93;50.00;;;17.60;99.90;;;;;;5039103;28;20083;-78
2021/06/05 01:36:28;;;;;;;134.95;50.22;;;17.60;99.90;;;;;;5041700;28;20056;-77
2021/06/05 01:39:00;;;;;;;118.18;45.50;;;17.50;99.90;;;;;;5039087;28;20408;-78
2021/06/05 01:41:29;;;;;;;118.78;44.22;;;17.50;99.90;;;;;;5069818;28;20053;-78
2021/06/05 01:43:58;;;;;;;124.15;45.30;;;17.40;99.90;;;;;;5041151;28;20051;-77
2021/06/05 01:46:30;;;;;;;119.72;43.58;;;17.30;99.90;;;;;;5037974;28;20048;-78
2021/06/05 01:48:57;;;;;;;117.50;43.35;;;17.30;99.90;;;;;;5035205;28;20057;-78
2021/06/05 01:51:24;;;;;;;117.20;41.03;;;17.20;99.90;;;;;;5039257;28;20101;-78
2021/06/05 01:53:55;;;;;;;117.30;41.88;;;17.20;99.90;;;;;;5039492;28;20048;-78
2021/06/05 01:56:35;;;;;;;110.18;42.20;;;17.20;99.90;;;;;;5037253;28;20052;-78
2021/06/05 01:59:04;;;;;;;103.93;38.90;;;17.20;99.90;;;;;;5037342;28;20048;-78
2021/06/05 02:01:31;;;;;;;116.22;39.90;;;17.20;99.90;;;;;;5053088;28;20365;-77
2021/06/05 02:03:58;;;;;;;106.72;38.25;;;17.20;99.90;;;;;;5037876;28;20102;-78
2021/06/05 02:06:25;;;;;;;111.70;37.72;;;17.20;99.90;;;;;;5037785;28;20057;-78
2021/06/05 02:08:54;;;;;;;112.07;39.92;;;17.20;99.90;;;;;;5040727;28;20055;-78
2021/06/05 02:11:26;;;;;;;119.55;42.05;;;17.20;99.90;;;;;;5034063;28;20055;-78
2021/06/05 02:14:13;;;;;;;117.20;38.95;;;17.20;99.90;;;;;;5053189;28;20084;-78
2021/06/05 02:16:43;;;;;;;108.50;38.78;;;17.20;99.90;;;;;;5038463;28;20052;-78
2021/06/05 02:19:19;;;;;;;104.10;39.17;;;17.20;99.90;;;;;;5040415;28;20876;-78
2021/06/05 02:21:47;;;;;;;107.25;38.05;;;17.20;99.90;;;;;;5034940;28;20385;-78
2021/06/05 02:24:39;;;;;;;102.45;37.83;;;17.20;99.90;;;;;;5038567;28;20053;-79
2021/06/05 02:27:06;;;;;;;97.55;38.17;;;17.20;99.90;;;;;;5039684;28;20049;-78
2021/06/05 02:29:39;;;;;;;90.78;35.65;;;17.20;99.90;;;;;;5036564;28;20067;-78
2021/06/05 02:32:11;;;;;;;98.65;38.45;;;17.10;99.90;;;;;;5036822;28;20381;-78
2021/06/05 02:34:39;;;;;;;85.50;34.38;;;17.10;99.90;;;;;;5070901;28;20494;-78
2021/06/05 02:37:09;;;;;;;83.53;33.00;;;17.20;99.90;;;;;;5034871;28;20053;-78
2021/06/05 02:39:36;;;;;;;76.60;31.23;;;17.20;99.90;;;;;;5069444;28;20053;-78
2021/06/05 02:42:08;;;;;;;67.43;30.88;;;17.20;99.90;;;;;;5045630;28;20055;-78
2021/06/05 02:44:35;;;;;;;71.95;31.23;;;17.20;99.90;;;;;;5049416;28;20124;-78
2021/06/05 02:47:07;;;;;;;56.67;26.85;;;17.20;99.90;;;;;;5036662;28;20045;-78
2021/06/05 02:49:36;;;;;;;65.85;29.15;;;17.20;99.90;;;;;;5046943;28;20048;-78
2021/06/05 02:52:08;;;;;;;68.28;29.55;;;17.10;99.90;;;;;;5045962;28;20111;-78
2021/06/05 02:54:36;;;;;;;61.72;27.48;;;17.10;99.90;;;;;;5045260;28;20108;-79
2021/06/05 02:57:06;;;;;;;62.55;26.00;;;17.10;99.90;;;;;;5045952;28;20049;-78
2021/06/05 02:59:33;;;;;;;58.20;27.00;;;17.00;99.90;;;;;;5039334;28;20053;-78
2021/06/05 03:02:00;;;;;;;55.17;25.67;;;17.00;99.90;;;;;;5076747;28;20053;-78
2021/06/05 03:04:27;;;;;;;52.92;25.25;;;17.00;99.90;;;;;;5042454;28;20400;-78
2021/06/05 03:06:54;;;;;;;43.55;23.58;;;17.00;99.90;;;;;;5041063;28;20049;-78
2021/06/05 03:09:21;;;;;;;34.80;20.17;;;17.10;99.90;;;;;;5055852;28;20067;-78
2021/06/05 03:11:49;;;;;;;40.85;21.25;;;17.10;99.90;;;;;;5043570;28;20527;-77
2021/06/05 03:14:16;;;;;;;37.00;21.25;;;17.10;99.90;;;;;;5041004;28;20100;-78
2021/06/05 03:16:43;;;;;;;38.33;20.17;;;17.20;99.90;;;;;;5041195;28;20060;-78
2021/06/05 03:19:10;;;;;;;38.28;20.17;;;17.20;99.90;;;;;;5044639;28;20065;-78
2021/06/05 03:21:36;;;;;;;34.33;18.30;;;17.20;99.90;;;;;;5044261;28;20412;-77
2021/06/05 03:24:04;;;;;;;26.48;15.57;;;17.20;99.90;;;;;;5051698;28;20053;-78
2021/06/05 03:26:30;;;;;;;31.25;16.20;;;17.20;99.90;;;;;;5049745;28;20053;-78
2021/06/05 03:28:57;;;;;;;35.08;16.52;;;17.10;99.90;;;;;;5044812;28;20060;-78
2021/06/05 03:31:24;;;;;;;28.25;15.30;;;17.00;99.90;;;;;;5041299;28;20044;-78
2021/06/05 03:33:51;;;;;;;30.70;16.25;;;17.00;99.90;;;;;;5041528;28;20052;-78
2021/06/05 03:36:21;;;;;;;35.83;16.50;;;17.00;99.90;;;;;;5076673;28;20527;-78
2021/06/05 03:38:48;;;;;;;36.45;16.65;;;17.00;99.90;;;;;;5078460;28;20055;-78
2021/06/05 03:41:15;;;;;;;27.95;15.82;;;16.90;99.90;;;;;;5047702;28;20676;-78
2021/06/05 03:43:42;;;;;;;28.67;15.48;;;16.90;99.90;;;;;;5039848;28;20068;-78
2021/06/05 03:46:11;;;;;;;31.35;16.23;;;16.90;99.90;;;;;;5042332;28;20053;-78
2021/06/05 03:48:38;;;;;;;27.60;15.52;;;16.80;99.90;;;;;;5073986;28;20049;-78
2021/06/05 03:51:06;;;;;;;29.27;14.73;;;16.80;99.90;;;;;;5045873;28;20144;-78
2021/06/05 03:53:33;;;;;;;28.58;15.43;;;16.80;99.90;;;;;;5040950;28;20041;-78
2021/06/05 03:56:00;;;;;;;27.42;14.88;;;16.70;99.90;;;;;;5059762;28;20056;-78
2021/06/05 03:58:30;;;;;;;25.13;14.27;;;16.70;99.90;;;;;;5044315;28;20053;-78
2021/06/05 04:00:57;;;;;;;28.55;14.95;;;16.70;99.90;;;;;;5045716;28;20050;-78
2021/06/05 04:03:24;;;;;;;27.25;13.43;;;16.80;99.90;;;;;;5046326;28;20057;-78
2021/06/05 04:05:51;;;;;;;27.05;16.10;;;16.80;99.90;;;;;;5038861;28;20133;-79
2021/06/05 04:08:18;;;;;;;29.08;14.57;;;16.80;99.90;;;;;;5046212;28;20059;-78
2021/06/05 04:10:44;;;;;;;24.48;14.00;;;16.80;99.90;;;;;;5046374;28;20118;-79
2021/06/05 04:13:11;;;;;;;23.92;13.18;;;16.80;99.90;;;;;;5045144;28;20064;-79
2021/06/05 04:15:38;;;;;;;20.50;12.45;;;16.80;99.90;;;;;;5040550;28;20055;-78
2021/06/05 04:18:09;;;;;;;21.63;12.18;;;16.90;99.90;;;;;;5037642;28;20057;-78
2021/06/05 04:20:38;;;;;;;23.05;12.10;;;16.90;99.90;;;;;;5042487;28;20049;-80
2021/06/05 04:23:07;;;;;;;22.33;12.65;;;16.90;99.90;;;;;;5042098;28;20061;-77
2021/06/05 04:25:34;;;;;;;18.10;11.82;;;17.00;99.90;;;;;;5048201;28;20140;-79
2021/06/05 04:28:02;;;;;;;21.95;12.40;;;17.00;99.90;;;;;;5041937;28;20051;-78
2021/06/05 04:30:30;;;;;;;18.35;11.95;;;16.90;99.90;;;;;;5050105;28;20392;-78
2021/06/05 04:32:58;;;;;;;23.08;12.38;;;16.90;99.90;;;;;;5042468;28;20143;-78
2021/06/05 04:35:25;;;;;;;23.35;10.50;;;16.90;99.90;;;;;;5032386;28;20048;-77
2021/06/05 04:37:52;;;;;;;24.73;10.20;;;16.90;99.90;;;;;;5044108;28;20059;-79
2021/06/05 04:40:20;;;;;;;20.02;10.43;;;16.80;99.90;;;;;;5044185;28;20058;-78
2021/06/05 04:42:49;;;;;;;21.52;10.85;;;16.80;99.90;;;;;;5035036;28;20862;-78
2021/06/05 04:45:18;;;;;;;14.10;8.63;;;16.80;99.90;;;;;;5076205;28;20123;-78
2021/06/05 04:47:44;;;;;;;18.92;10.30;;;16.70;99.90;;;;;;5030641;28;20049;-78
2021/06/05 04:50:14;;;;;;;17.48;8.48;;;16.60;99.90;;;;;;5045267;28;20420;-78
2021/06/05 04:52:40;;;;;;;19.30;9.55;;;16.60;99.90;;;;;;5083337;28;20582;-78
2021/06/05 04:55:09;;;;;;;17.75;9.85;;;16.50;99.90;;;;;;5047504;28;20042;-79
2021/06/05 04:57:52;;;;;;;19.45;9.50;;;16.50;99.90;;;;;;5047411;28;20045;-79
2021/06/05 05:00:28;;;;;;;16.17;8.85;;;16.60;99.90;;;;;;5043695;28;20127;-78
2021/06/05 05:02:56;;;;;;;22.67;10.23;;;16.60;99.90;;;;;;5054660;28;20139;-79
2021/06/05 05:05:23;;;;;;;16.63;8.90;;;16.60;99.90;;;;;;5046987;28;20049;-79
2021/06/05 05:07:51;;;;;;;15.27;8.73;;;16.70;99.90;;;;;;5049248;28;20054;-78
2021/06/05 05:10:21;;;;;;;15.20;7.97;;;16.70;99.90;;;;;;5077788;28;20057;-79
2021/06/05 05:12:48;;;;;;;10.57;7.28;;;16.80;99.90;;;;;;5044945;28;20065;-79
2021/06/05 05:15:16;;;;;;;13.57;6.50;;;16.90;99.90;;;;;;5049871;28;20101;-78
2021/06/05 05:17:42;;;;;;;10.38;6.40;;;16.90;99.90;;;;;;5043545;28;20456;-79
2021/06/05 05:20:12;;;;;;;8.70;5.70;;;17.00;99.90;;;;;;5046874;28;20059;-79
2021/06/05 05:22:40;;;;;;;8.55;5.60;;;17.00;99.90;;;;;;5046282;28;20087;-78
2021/06/05 05:25:08;;;;;;;7.65;5.68;;;17.10;99.90;;;;;;5043909;28;20121;-79
2021/06/05 05:27:35;;;;;;;10.27;5.60;;;17.20;99.90;;;;;;5047246;28;20703;-79
2021/06/05 05:30:08;;;;;;;7.60;5.70;;;17.30;99.90;;;;;;5047635;28;20057;-78
2021/06/05 05:32:35;;;;;;;10.00;6.40;;;17.30;99.90;;;;;;5049328;28;20080;-78
2021/06/05 05:35:05;;;;;;;10.80;5.90;;;17.30;99.90;;;;;;5043527;28;20049;-78
2021/06/05 05:37:31;;;;;;;11.27;6.28;;;17.30;99.90;;;;;;5045938;28;20052;-78
2021/06/05 05:39:58;;;;;;;10.55;6.43;;;17.40;99.90;;;;;;5048276;28;20603;-79
2021/06/05 05:42:25;;;;;;;8.32;4.82;;;17.40;99.90;;;;;;5044818;28;20075;-78
2021/06/05 05:44:52;;;;;;;7.28;4.47;;;17.50;99.90;;;;;;5051199;28;20120;-79
2021/06/05 05:47:19;;;;;;;5.50;4.28;;;17.60;99.90;;;;;;5045104;28;20048;-78
2021/06/05 05:49:47;;;;;;;4.63;4.00;;;17.70;99.90;;;;;;5042573;28;20061;-78
2021/06/05 05:52:13;;;;;;;4.88;3.72;;;17.90;99.90;;;;;;5048472;28;20059;-78
2021/06/05 05:54:40;;;;;;;4.68;3.70;;;18.00;99.90;;;;;;5045001;28;20057;-79
2021/06/05 05:57:07;;;;;;;4.10;3.33;;;18.00;99.90;;;;;;5044851;28;20137;-79
2021/06/05 05:59:35;;;;;;;6.53;3.50;;;17.90;99.90;;;;;;5041838;28;20055;-78
2021/06/05 06:02:04;;;;;;;3.88;3.50;;;17.80;99.90;;;;;;5058185;28;20057;-79
2021/06/05 06:04:31;;;;;;;5.80;4.07;;;17.80;99.90;;;;;;5041931;28;20049;-78
2021/06/05 06:06:58;;;;;;;5.80;4.35;;;17.70;99.90;;;;;;5049874;28;20051;-79
2021/06/05 06:09:25;;;;;;;4.90;4.10;;;17.70;99.90;;;;;;5043687;28;20049;-78
2021/06/05 06:11:52;;;;;;;5.47;4.20;;;17.80;99.90;;;;;;5045087;28;20147;-78
2021/06/05 06:14:19;;;;;;;5.47;4.45;;;17.90;99.90;;;;;;5045053;28;20060;-77
2021/06/05 06:16:47;;;;;;;5.13;4.40;;;18.00;99.90;;;;;;5059901;28;20095;-79
2021/06/05 06:19:14;;;;;;;4.88;4.40;;;18.00;99.90;;;;;;5040667;28;20831;-78
2021/06/05 06:21:43;;;;;;;5.43;4.60;;;18.00;99.90;;;;;;5042427;28;20113;-80
2021/06/05 06:24:11;;;;;;;5.53;4.60;;;18.10;99.90;;;;;;5039645;28;20052;-78
2021/06/05 06:26:39;;;;;;;8.70;5.55;;;18.00;99.90;;;;;;5042493;28;20069;-79
2021/06/05 06:29:16;;;;;;;6.22;5.30;;;18.00;99.90;;;;;;5039473;28;20052;-78
2021/06/05 06:31:46;;;;;;;6.55;5.80;;;18.00;99.90;;;;;;5046441;28;20059;-79
2021/06/05 06:34:15;;;;;;;7.82;6.43;;;18.00;99.90;;;;;;5030101;28;20053;-79
2021/06/05 06:36:43;;;;;;;6.72;6.03;;;18.00;99.90;;;;;;5043874;28;20394;-76
2021/06/05 06:39:11;;;;;;;7.93;6.47;;;18.10;99.90;;;;;;5071106;28;20136;-78
2021/06/05 06:41:38;;;;;;;10.30;6.82;;;18.20;99.90;;;;;;5040522;28;20137;-78
2021/06/05 06:44:07;;;;;;;7.20;6.38;;;18.40;99.90;;;;;;5035759;28;20057;-78
2021/06/05 06:46:44;;;;;;;8.40;6.70;;;18.50;99.90;;;;;;5046779;28;20048;-78
2021/06/05 06:49:13;;;;;;;8.65;6.80;;;18.70;99.90;;;;;;5045029;28;20071;-78
2021/06/05 06:51:41;;;;;;;8.32;7.10;;;18.80;99.90;;;;;;5075097;28;20496;-78
2021/06/05 06:54:09;;;;;;;9.38;7.70;;;18.90;99.90;;;;;;5042798;28;20049;-78
2021/06/05 06:56:37;;;;;;;9.35;7.18;;;19.00;99.90;;;;;;5043226;28;20397;-78
2021/06/05 06:59:05;;;;;;;8.88;6.95;;;19.20;99.90;;;;;;5040763;28;20128;-78
2021/06/05 07:01:35;;;;;;;9.32;7.18;;;19.30;99.90;;;;;;5039510;28;20535;-78
2021/06/05 07:04:03;;;;;;;9.85;6.90;;;19.50;99.90;;;;;;5041149;28;20060;-78
2021/06/05 07:06:30;;;;;;;8.38;7.18;;;19.60;99.90;;;;;;5041854;28;20816;-78
2021/06/05 07:08:57;;;;;;;7.88;7.13;;;19.80;99.90;;;;;;5042138;28;20133;-78
2021/06/05 07:11:30;;;;;;;9.55;7.55;;;19.90;99.90;;;;;;5057504;28;20057;-78
2021/06/05 07:13:58;;;;;;;;;;;20.30;99.90;;;;;;5043527;28;20079;-78
2021/06/05 07:16:26;;;;;;;8.52;6.65;;;20.70;99.90;;;;;;5042481;28;19992;-78
2021/06/05 07:18:53;;;;;;;7.75;6.90;;;21.20;99.90;;;;;;5042525;28;20378;-78
2021/06/05 07:21:20;;;;;;;7.97;6.60;;;21.60;99.90;;;;;;5056070;28;20101;-78
2021/06/05 07:23:47;;;;;;;8.82;7.75;;;21.90;99.90;;;;;;5046022;28;20057;-78
2021/06/05 07:26:17;;;;;;;10.77;6.68;;;22.30;99.90;;;;;;5036959;28;20060;-78
2021/06/05 07:28:49;;;;;;;8.85;7.18;;;22.40;99.90;;;;;;5072942;28;20113;-78
2021/06/05 07:31:20;;;;;;;7.53;6.13;;;22.50;99.90;;;;;;5039358;28;20052;-78
2021/06/05 07:33:47;;;;;;;7.38;6.60;;;22.60;99.90;;;;;;5039022;28;20045;-78
2021/06/05 07:36:19;;;;;;;7.97;7.03;;;22.50;99.90;;;;;;5036703;28;20049;-78
2021/06/05 07:38:46;;;;;;;9.55;6.75;;;22.40;99.90;;;;;;5041279;28;20041;-78
2021/06/05 07:41:13;;;;;;;8.25;7.35;;;22.30;99.90;;;;;;5042609;28;20064;-79
2021/06/05 07:43:40;;;;;;;8.48;7.07;;;22.30;99.90;;;;;;5047667;28;22197;-78
2021/06/05 07:46:08;;;;;;;7.65;6.88;;;22.40;99.90;;;;;;5040797;28;20128;-78
2021/06/05 07:48:36;;;;;;;7.80;6.70;;;22.50;99.90;;;;;;5042789;28;20112;-78
2021/06/05 07:51:05;;;;;;;9.98;7.93;;;22.60;99.90;;;;;;5038728;28;20764;-79
2021/06/05 07:53:33;;;;;;;9.43;7.45;;;22.50;99.90;;;;;;5037917;28;20060;-77
2021/06/05 07:55:59;;;;;;;8.63;7.50;;;22.40;99.90;;;;;;5068508;28;20400;-77
2021/06/05 07:58:26;;;;;;;8.55;7.57;;;22.30;99.90;;;;;;5040171;28;20064;-78
2021/06/05 08:00:54;;;;;;;9.82;8.05;;;22.10;99.90;;;;;;5039434;28;20146;-78
2021/06/05 08:03:21;;;;;;;8.90;7.50;;;22.10;99.90;;;;;;5056589;28;20056;-78
2021/06/05 08:05:48;;;;;;;9.18;7.00;;;22.20;99.90;;;;;;5042569;28;20160;-78
2021/06/05 08:08:15;;;;;;;7.40;6.70;;;22.30;99.90;;;;;;5042198;28;20060;-78
2021/06/05 08:10:43;;;;;;;8.63;7.25;;;22.30;99.90;;;;;;5043908;28;20057;-78
2021/06/05 08:13:11;;;;;;;8.63;7.57;;;22.20;99.90;;;;;;5042895;28;20715;-78
2021/06/05 08:15:42;;;;;;;8.57;7.30;;;22.20;99.90;;;;;;5040996;28;20102;-78
2021/06/05 08:18:10;;;;;;;11.30;7.18;;;22.20;99.90;;;;;;5043295;28;20065;-77
2021/06/05 08:20:44;;;;;;;7.57;6.55;;;22.40;99.90;;;;;;5047171;28;20087;-78
2021/06/05 08:23:12;;;;;;;7.88;7.07;;;22.60;99.90;;;;;;5076389;28;20048;-78
2021/06/05 08:25:39;;;;;;;9.55;7.95;;;22.80;99.90;;;;;;5073301;28;20063;-78
2021/06/05 08:28:08;;;;;;;10.02;7.55;;;23.00;99.90;;;;;;5043300;28;20461;-78
2021/06/05 08:30:45;;;;;;;8.40;7.05;;;23.10;99.90;;;;;;5039533;28;20588;-77
2021/06/05 08:33:13;;;;;;;8.50;6.85;;;23.10;99.90;;;;;;5034221;28;20064;-77
2021/06/05 08:35:40;;;;;;;9.07;7.57;;;23.00;99.90;;;;;;5037055;28;20141;-77
2021/06/05 08:38:10;;;;;;;7.70;6.90;;;22.80;99.90;;;;;;5035774;28;20431;-77
2021/06/05 08:41:07;;;;;;;8.40;7.60;;;22.70;99.90;;;;;;5034268;28;20056;-77
2021/06/05 08:43:48;;;;;;;7.55;6.75;;;22.60;99.90;;;;;;5075484;28;20072;-77
2021/06/05 08:46:29;;;;;;;8.38;6.97;;;22.50;99.90;;;;;;5051371;28;20051;-79
2021/06/05 08:48:58;;;;;;;7.18;6.47;;;22.70;99.90;;;;;;5046065;28;20087;-78
2021/06/05 08:51:39;;;;;;;8.05;7.00;;;22.80;99.90;;;;;;5044495;28;20045;-78
2021/06/05 08:54:28;;;;;;;7.75;6.55;;;23.10;99.90;;;;;;5048564;28;20050;-78
2021/06/05 08:56:57;;;;;;;7.18;6.45;;;23.30;99.10;;;;;;5042136;28;20481;-78
2021/06/05 08:59:24;;;;;;;7.72;6.93;;;23.40;99.10;;;;;;5075507;28;20059;-78
2021/06/05 09:01:52;;;;;;;7.88;6.45;;;23.40;99.60;;;;;;5057636;28;20061;-78
2021/06/05 09:04:22;;;;;;;8.32;6.68;;;23.40;99.60;;;;;;5042210;28;20056;-78
2021/06/05 09:06:57;;;;;;;8.85;7.38;;;23.50;98.80;;;;;;5057272;28;20112;-78
2021/06/05 09:09:38;;;;;;;10.13;7.15;;;23.30;98.60;;;;;;5041068;28;20056;-78
2021/06/05 09:12:05;;;;;;;8.20;7.40;;;23.20;98.20;;;;;;5043607;28;20046;-78
2021/06/05 09:14:35;;;;;;;8.18;7.35;;;23.10;98.90;;;;;;5048686;28;20056;-77
2021/06/05 09:17:19;;;;;;;9.77;8.40;;;23.00;99.30;;;;;;5045799;28;20141;-78
2021/06/05 09:20:05;;;;;;;10.23;7.95;;;23.00;99.40;;;;;;5049357;28;20049;-78
2021/06/05 09:22:38;;;;;;;8.60;7.70;;;22.80;99.40;;;;;;5056870;28;20057;-78
2021/06/05 09:25:29;;;;;;;9.50;7.25;;;22.70;99.90;;;;;;5040087;28;20055;-78
2021/06/05 09:28:16;;;;;;;10.32;7.93;;;22.60;99.90;;;;;;5045870;28;20040;-78
2021/06/05 09:30:46;;;;;;;10.07;7.32;;;22.60;99.90;;;;;;5064396;28;22924;-79
2021/06/05 09:33:29;;;;;;;9.77;6.88;;;22.60;99.90;;;;;;5041049;28;20060;-79
2021/06/05 09:36:17;;;;;;;8.30;6.87;;;22.60;99.50;;;;;;5039972;28;20051;-78
2021/06/05 09:38:48;;;;;;;6.97;6.28;;;22.50;99.80;;;;;;5040200;28;20041;-78
2021/06/05 09:41:23;;;;;;;8.95;6.82;;;22.30;99.80;;;;;;5039246;28;20059;-78
2021/06/05 09:43:52;;;;;;;17.98;7.22;;;22.10;99.90;;;;;;5038772;28;20051;-78
2021/06/05 09:46:19;;;;;;;16.40;7.65;;;21.80;99.70;;;;;;5046126;28;20049;-79
2021/06/05 09:48:49;;;;;;;9.60;8.55;;;21.50;99.90;;;;;;5057632;28;20830;-78
2021/06/05 09:51:40;;;;;;;9.85;8.80;;;21.40;99.90;;;;;;5047154;28;20048;-78
2021/06/05 09:54:28;;;;;;;12.10;8.43;;;21.30;99.90;;;;;;5053988;28;20072;-77
2021/06/05 09:57:30;;;;;;;11.27;8.52;;;21.40;99.90;;;;;;5044603;28;20056;-78
2021/06/05 10:00:22;;;;;;;10.48;8.63;;;21.50;99.90;;;;;;5040161;28;20405;-78
2021/06/05 10:02:53;;;;;;;10.63;8.88;;;21.50;99.90;;;;;;5041799;28;20047;-78
2021/06/05 10:05:28;;;;;;;9.80;8.80;;;21.50;99.90;;;;;;5035212;28;20049;-78
2021/06/05 10:08:16;;;;;;;9.90;8.90;;;21.40;99.90;;;;;;5039475;28;20076;-78
2021/06/05 10:10:46;;;;;;;12.25;9.65;;;21.30;99.90;;;;;;5041351;28;20045;-78
2021/06/05 10:13:27;;;;;;;12.45;9.55;;;21.10;99.90;;;;;;5055983;28;20050;-78
2021/06/05 10:16:05;;;;;;;12.80;10.77;;;21.00;99.90;;;;;;5042369;28;20053;-78
2021/06/05 10:18:43;;;;;;;14.68;10.52;;;21.00;99.90;;;;;;5040985;28;20060;-78
2021/06/05 10:21:22;;;;;;;13.07;11.27;;;21.00;99.90;;;;;;5041104;28;20055;-78
2021/06/05 10:23:56;;;;;;;15.48;11.90;;;20.90;99.90;;;;;;5038091;28;20068;-79
2021/06/05 10:26:39;;;;;;;18.80;12.52;;;20.90;99.90;;;;;;5067739;28;20124;-78
2021/06/05 10:29:44;;;;;;;16.77;13.55;;;20.80;99.90;;;;;;5039771;28;20056;-78
2021/06/05 10:32:28;;;;;;;15.70;13.23;;;20.70;99.90;;;;;;5054619;28;20045;-78
2021/06/05 10:35:01;;;;;;;17.23;14.15;;;20.60;99.90;;;;;;5046542;28;20600;-78
2021/06/05 10:37:31;;;;;;;18.02;13.70;;;20.60;99.90;;;;;;5074298;28;20049;-78
2021/06/05 10:40:00;;;;;;;18.33;14.63;;;20.70;99.90;;;;;;5040912;28;20055;-78
2021/06/05 10:42:46;;;;;;;17.15;13.10;;;20.80;99.90;;;;;;5040634;28;20405;-78
2021/06/05 10:45:30;;;;;;;16.15;13.68;;;20.80;99.90;;;;;;5037452;28;20128;-78
2021/06/05 10:48:08;;;;;;;17.85;13.27;;;20.80;99.90;;;;;;5040013;28;20049;-78
2021/06/05 10:50:41;;;;;;;15.05;11.95;;;20.90;99.90;;;;;;5036793;28;20511;-78
2021/06/05 10:53:38;;;;;;;17.23;13.02;;;21.00;99.90;;;;;;5071437;28;20467;-78
2021/06/05 10:56:16;;;;;;;15.52;11.88;;;21.20;99.90;;;;;;5039774;28;20057;-78
2021/06/05 10:58:47;;;;;;;18.48;13.80;;;21.20;99.90;;;;;;5043336;28;20100;-78
2021/06/05 11:01:29;;;;;;;19.45;16.02;;;21.10;99.90;;;;;;5055667;28;20412;-77
2021/06/05 11:04:31;;;;;;;19.55;15.90;;;21.00;99.90;;;;;;5052556;28;20052;-78
2021/06/05 11:07:04;;;;;;;22.00;16.33;;;20.80;99.90;;;;;;5027902;28;20127;-78
2021/06/05 11:09:31;;;;;;;23.17;15.83;;;20.70;99.90;;;;;;5044499;28;20049;-78
2021/06/05 11:12:12;;;;;;;20.80;15.98;;;20.60;99.90;;;;;;5063337;28;20378;-78
2021/06/05 11:14:43;;;;;;;22.63;15.85;;;20.60;99.90;;;;;;5057128;28;20045;-78
2021/06/05 11:17:33;;;;;;;20.48;16.30;;;20.60;99.90;;;;;;5040023;28;20093;-78
2021/06/05 11:20:04;;;;;;;24.10;16.52;;;20.80;99.90;;;;;;5038996;28;20049;-78
2021/06/05 11:22:50;;;;;;;22.08;16.17;;;20.90;99.90;;;;;;5071357;28;20045;-78
2021/06/05 11:25:16;;;;;;;21.80;15.77;;;20.90;99.90;;;;;;5072657;28;20124;-78
2021/06/05 11:27:48;;;;;;;22.73;16.10;;;20.90;99.90;;;;;;5073928;28;20492;-78
2021/06/05 11:30:20;;;;;;;23.88;16.02;;;21.00;99.90;;;;;;5040518;28;20617;-78
2021/06/05 11:33:02;;;;;;;23.65;16.60;;;21.00;99.90;;;;;;5056439;28;20049;-79
2021/06/05 11:35:42;;;;;;;22.58;16.52;;;20.90;99.90;;;;;;5060323;28;20045;-78
2021/06/05 11:38:32;;;;;;;23.95;16.08;;;21.10;99.90;;;;;;5040335;28;20051;-78
2021/06/05 11:41:04;;;;;;;24.75;15.88;;;21.30;99.90;;;;;;5036901;28;20080;-79
2021/06/05 11:43:30;;;;;;;22.48;16.13;;;21.50;99.90;;;;;;5045004;28;20679;-78
2021/06/05 11:46:12;;;;;;;26.15;16.17;;;21.70;99.90;;;;;;5070195;28;20136;-79
2021/06/05 11:48:48;;;;;;;21.17;15.95;;;21.80;99.70;;;;;;5061894;28;20053;-78
2021/06/05 11:51:20;;;;;;;22.38;17.10;;;21.80;99.70;;;;;;5070399;28;20135;-79
2021/06/05 11:53:53;;;;;;;23.25;15.90;;;21.70;99.80;;;;;;5047347;28;20698;-79
2021/06/05 11:56:31;;;;;;;26.50;17.20;;;21.70;99.90;;;;;;5074198;28;20866;-79
2021/06/05 11:59:22;;;;;;;23.95;16.80;;;21.70;99.90;;;;;;5063289;28;20481;-79
2021/06/05 12:01:53;;;;;;;25.83;17.60;;;21.60;99.90;;;;;;5044388;28;20052;-79
2021/06/05 12:04:23;;;;;;;25.83;16.77;;;21.50;99.90;;;;;;5061302;28;20055;-78
2021/06/05 12:06:51;;;;;;;23.80;16.25;;;21.40;99.90;;;;;;5042625;28;20083;-78
2021/06/05 12:09:23;;;;;;;24.17;16.27;;;21.40;99.90;;;;;;5044976;28;20052;-79
2021/06/05 12:11:59;;;;;;;24.58;16.40;;;21.40;99.90;;;;;;5057854;28;20044;-79
2021/06/05 12:17:18;;;;;;;22.52;14.95;;;21.40;99.90;;;;;;5042864;28;20049;-78
2021/06/05 12:19:46;;;;;;;23.10;15.15;;;21.60;99.90;;;;;;5054257;28;20411;-78
2021/06/05 12:22:19;;;;;;;20.33;15.13;;;21.70;99.90;;;;;;5077846;28;20052;-79
2021/06/05 12:24:51;;;;;;;19.25;14.60;;;21.80;99.90;;;;;;5059272;28;20049;-79
2021/06/05 12:27:40;;;;;;;18.90;14.25;;;22.20;99.10;;;;;;5038650;28;20041;-79
2021/06/05 12:30:26;;;;;;;21.25;13.43;;;22.40;99.10;;;;;;5044539;28;20057;-78
2021/06/05 12:32:58;;;;;;;18.75;13.55;;;22.40;97.90;;;;;;5043782;28;20049;-78
2021/06/05 12:35:34;;;;;;;16.25;12.95;;;22.30;98.10;;;;;;5041076;28;20113;-78
2021/06/05 12:38:02;;;;;;;18.98;14.18;;;22.20;98.60;;;;;;5053069;28;20059;-79
2021/06/05 12:40:57;;;;;;;18.38;14.20;;;22.20;98.40;;;;;;5058079;28;20057;-78
2021/06/05 12:43:32;;;;;;;19.02;14.75;;;22.00;98.30;;;;;;5036961;28;20381;-78
2021/06/05 12:46:06;;;;;;;20.98;15.13;;;21.90;98.40;;;;;;5041797;28;20488;-79
2021/06/05 12:48:33;;;;;;;;;;;21.80;98.60;;;;;;5040094;28;20101;-79
2021/06/05 12:51:01;;;;;;;22.73;16.48;;;21.80;99.10;;;;;;5075694;28;19933;-78
2021/06/05 12:53:32;;;;;;;27.00;17.08;;;21.60;98.90;;;;;;5047080;28;20601;-78
2021/06/05 12:56:02;;;;;;;27.05;16.63;;;21.50;99.60;;;;;;5038784;28;20060;-79
2021/06/05 12:58:43;;;;;;;28.40;18.95;;;21.40;99.60;;;;;;5049843;28;20602;-78